sensor_id;sensor_type;location;lat;lon;timestamp;P1;durP1;ratioP1;P2;durP2;ratioP2
49828;SDS011;35723;51.194;5.112;2022-12-07T00:00:40;27.85;;;13.60;;
49828;SDS011;35723;51.194;5.112;2022-12-07T00:03:06;25.15;;;13.77;;
49828;SDS011;35723;51.194;5.112;2022-12-07T00:05:31;26.70;;;13.70;;
49828;SDS011;35723;51.194;5.112;2022-12-07T00:07:57;26.10;;;12.85;;
49828;SDS011;35723;51.194;5.112;2022-12-07T00:10:22;26.38;;;13.82;;
49828;SDS011;35723;51.194;5.112;2022-12-07T00:12:48;26.98;;;13.25;;
49828;SDS011;35723;51.194;5.112;2022-12-07T00:15:15;30.10;;;14.43;;
49828;SDS011;35723;51.194;5.112;2022-12-07T00:17:40;27.75;;;14.23;;
49828;SDS011;35723;51.194;5.112;2022-12-07T00:20:06;26.67;;;14.07;;
49828;SDS011;35723;51.194;5.112;2022-12-07T00:22:32;24.88;;;13.48;;
49828;SDS011;35723;51.194;5.112;2022-12-07T00:24:58;26.73;;;13.70;;
49828;SDS011;35723;51.194;5.112;2022-12-07T00:27:23;30.30;;;14.82;;
49828;SDS011;35723;51.194;5.112;2022-12-07T00:29:49;31.20;;;14.60;;
49828;SDS011;35723;51.194;5.112;2022-12-07T00:32:14;28.65;;;14.45;;
49828;SDS011;35723;51.194;5.112;2022-12-07T00:34:40;30.25;;;15.15;;
49828;SDS011;35723;51.194;5.112;2022-12-07T00:37:05;31.33;;;15.02;;
49828;SDS011;35723;51.194;5.112;2022-12-07T00:39:31;28.38;;;15.02;;
49828;SDS011;35723;51.194;5.112;2022-12-07T00:41:57;30.92;;;15.07;;
49828;SDS011;35723;51.194;5.112;2022-12-07T00:44:22;29.40;;;15.35;;
49828;SDS011;35723;51.194;5.112;2022-12-07T00:46:48;27.42;;;14.80;;
49828;SDS011;35723;51.194;5.112;2022-12-07T00:49:13;26.70;;;14.70;;
49828;SDS011;35723;51.194;5.112;2022-12-07T00:51:39;29.23;;;14.90;;
49828;SDS011;35723;51.194;5.112;2022-12-07T00:54:05;30.85;;;14.95;;
49828;SDS011;35723;51.194;5.112;2022-12-07T00:56:30;28.13;;;14.88;;
49828;SDS011;35723;51.194;5.112;2022-12-07T00:58:57;29.55;;;15.25;;
49828;SDS011;35723;51.194;5.112;2022-12-07T01:01:26;29.35;;;15.23;;
49828;SDS011;35723;51.194;5.112;2022-12-07T01:03:53;27.80;;;15.25;;
49828;SDS011;35723;51.194;5.112;2022-12-07T01:06:20;29.63;;;15.07;;
49828;SDS011;35723;51.194;5.112;2022-12-07T01:08:47;29.77;;;14.80;;
49828;SDS011;35723;51.194;5.112;2022-12-07T01:11:15;28.85;;;14.82;;
49828;SDS011;35723;51.194;5.112;2022-12-07T01:13:43;29.00;;;15.50;;
49828;SDS011;35723;51.194;5.112;2022-12-07T01:16:10;27.08;;;14.45;;
49828;SDS011;35723;51.194;5.112;2022-12-07T01:18:38;31.40;;;14.60;;
49828;SDS011;35723;51.194;5.112;2022-12-07T01:21:05;31.20;;;15.07;;
49828;SDS011;35723;51.194;5.112;2022-12-07T01:23:34;28.58;;;15.18;;
49828;SDS011;35723;51.194;5.112;2022-12-07T01:26:02;28.55;;;14.88;;
49828;SDS011;35723;51.194;5.112;2022-12-07T01:28:29;28.35;;;14.82;;
49828;SDS011;35723;51.194;5.112;2022-12-07T01:30:59;27.63;;;14.93;;
49828;SDS011;35723;51.194;5.112;2022-12-07T01:33:30;29.25;;;14.57;;
49828;SDS011;35723;51.194;5.112;2022-12-07T01:36:19;28.70;;;15.23;;
49828;SDS011;35723;51.194;5.112;2022-12-07T01:38:47;28.63;;;15.30;;
49828;SDS011;35723;51.194;5.112;2022-12-07T01:41:14;28.40;;;14.77;;
49828;SDS011;35723;51.194;5.112;2022-12-07T01:48:59;28.92;;;15.02;;
49828;SDS011;35723;51.194;5.112;2022-12-07T01:51:25;29.13;;;15.23;;
49828;SDS011;35723;51.194;5.112;2022-12-07T01:53:52;30.23;;;15.27;;
49828;SDS011;35723;51.194;5.112;2022-12-07T01:56:19;32.97;;;14.90;;
49828;SDS011;35723;51.194;5.112;2022-12-07T01:58:48;27.75;;;14.77;;
49828;SDS011;35723;51.194;5.112;2022-12-07T02:01:14;29.58;;;14.70;;
49828;SDS011;35723;51.194;5.112;2022-12-07T02:03:41;27.50;;;14.85;;
49828;SDS011;35723;51.194;5.112;2022-12-07T02:06:08;27.05;;;13.77;;
49828;SDS011;35723;51.194;5.112;2022-12-07T02:08:36;24.90;;;14.07;;
49828;SDS011;35723;51.194;5.112;2022-12-07T02:11:03;27.77;;;13.85;;
49828;SDS011;35723;51.194;5.112;2022-12-07T02:13:31;26.52;;;13.88;;
49828;SDS011;35723;51.194;5.112;2022-12-07T02:25:08;28.67;;;13.55;;
49828;SDS011;35723;51.194;5.112;2022-12-07T02:27:47;27.08;;;13.07;;
49828;SDS011;35723;51.194;5.112;2022-12-07T02:30:21;26.20;;;13.57;;
49828;SDS011;35723;51.194;5.112;2022-12-07T02:35:34;27.85;;;14.38;;
49828;SDS011;35723;51.194;5.112;2022-12-07T02:38:11;25.70;;;13.68;;
49828;SDS011;35723;51.194;5.112;2022-12-07T02:40:51;25.85;;;13.98;;
49828;SDS011;35723;51.194;5.112;2022-12-07T02:43:26;25.23;;;13.75;;
49828;SDS011;35723;51.194;5.112;2022-12-07T02:45:57;26.20;;;13.55;;
49828;SDS011;35723;51.194;5.112;2022-12-07T02:48:28;24.73;;;12.93;;
49828;SDS011;35723;51.194;5.112;2022-12-07T02:50:55;25.73;;;13.55;;
49828;SDS011;35723;51.194;5.112;2022-12-07T02:53:34;29.58;;;13.65;;
49828;SDS011;35723;51.194;5.112;2022-12-07T02:56:09;26.33;;;13.98;;
49828;SDS011;35723;51.194;5.112;2022-12-07T03:01:20;27.80;;;13.73;;
49828;SDS011;35723;51.194;5.112;2022-12-07T03:06:42;26.02;;;13.63;;
49828;SDS011;35723;51.194;5.112;2022-12-07T03:09:16;28.10;;;13.77;;
49828;SDS011;35723;51.194;5.112;2022-12-07T03:11:56;26.25;;;13.65;;
49828;SDS011;35723;51.194;5.112;2022-12-07T03:14:32;25.45;;;14.00;;
49828;SDS011;35723;51.194;5.112;2022-12-07T03:17:05;27.90;;;12.93;;
49828;SDS011;35723;51.194;5.112;2022-12-07T03:19:47;25.17;;;13.07;;
49828;SDS011;35723;51.194;5.112;2022-12-07T03:22:15;28.90;;;13.55;;
49828;SDS011;35723;51.194;5.112;2022-12-07T03:24:46;24.85;;;13.25;;
49828;SDS011;35723;51.194;5.112;2022-12-07T03:27:36;25.58;;;13.13;;
49828;SDS011;35723;51.194;5.112;2022-12-07T03:30:16;26.75;;;13.38;;
49828;SDS011;35723;51.194;5.112;2022-12-07T03:35:45;28.67;;;13.30;;
49828;SDS011;35723;51.194;5.112;2022-12-07T03:38:20;24.98;;;12.88;;
49828;SDS011;35723;51.194;5.112;2022-12-07T03:40:55;24.25;;;13.05;;
49828;SDS011;35723;51.194;5.112;2022-12-07T03:43:24;27.92;;;13.15;;
49828;SDS011;35723;51.194;5.112;2022-12-07T03:45:58;27.17;;;13.30;;
49828;SDS011;35723;51.194;5.112;2022-12-07T03:51:19;27.60;;;13.60;;
49828;SDS011;35723;51.194;5.112;2022-12-07T03:53:48;28.77;;;14.07;;
49828;SDS011;35723;51.194;5.112;2022-12-07T03:56:18;28.25;;;13.20;;
49828;SDS011;35723;51.194;5.112;2022-12-07T03:58:46;28.48;;;13.52;;
49828;SDS011;35723;51.194;5.112;2022-12-07T04:01:12;25.92;;;12.90;;
49828;SDS011;35723;51.194;5.112;2022-12-07T04:03:38;27.80;;;13.57;;
49828;SDS011;35723;51.194;5.112;2022-12-07T04:06:03;27.52;;;13.75;;
49828;SDS011;35723;51.194;5.112;2022-12-07T04:08:29;27.63;;;13.38;;
49828;SDS011;35723;51.194;5.112;2022-12-07T04:10:55;27.63;;;13.65;;
49828;SDS011;35723;51.194;5.112;2022-12-07T04:13:21;29.00;;;14.02;;
49828;SDS011;35723;51.194;5.112;2022-12-07T04:15:46;27.23;;;13.00;;
49828;SDS011;35723;51.194;5.112;2022-12-07T04:18:12;27.08;;;13.10;;
49828;SDS011;35723;51.194;5.112;2022-12-07T04:20:37;28.20;;;12.82;;
49828;SDS011;35723;51.194;5.112;2022-12-07T04:23:03;26.52;;;12.70;;
49828;SDS011;35723;51.194;5.112;2022-12-07T04:25:29;26.48;;;12.88;;
49828;SDS011;35723;51.194;5.112;2022-12-07T04:27:54;24.52;;;12.95;;
49828;SDS011;35723;51.194;5.112;2022-12-07T04:30:20;28.60;;;12.75;;
49828;SDS011;35723;51.194;5.112;2022-12-07T04:32:46;27.38;;;13.88;;
49828;SDS011;35723;51.194;5.112;2022-12-07T04:35:11;26.77;;;13.27;;
49828;SDS011;35723;51.194;5.112;2022-12-07T04:37:37;26.92;;;13.80;;
49828;SDS011;35723;51.194;5.112;2022-12-07T04:40:05;26.50;;;13.98;;
49828;SDS011;35723;51.194;5.112;2022-12-07T04:42:32;29.33;;;13.77;;
49828;SDS011;35723;51.194;5.112;2022-12-07T04:44:58;27.00;;;13.95;;
49828;SDS011;35723;51.194;5.112;2022-12-07T04:47:24;25.77;;;14.05;;
49828;SDS011;35723;51.194;5.112;2022-12-07T04:49:49;23.45;;;12.88;;
49828;SDS011;35723;51.194;5.112;2022-12-07T04:52:15;26.17;;;13.30;;
49828;SDS011;35723;51.194;5.112;2022-12-07T04:54:40;26.35;;;13.60;;
49828;SDS011;35723;51.194;5.112;2022-12-07T04:57:06;26.85;;;13.65;;
49828;SDS011;35723;51.194;5.112;2022-12-07T04:59:32;30.20;;;14.20;;
49828;SDS011;35723;51.194;5.112;2022-12-07T05:01:57;31.08;;;14.60;;
49828;SDS011;35723;51.194;5.112;2022-12-07T05:04:23;30.13;;;13.90;;
49828;SDS011;35723;51.194;5.112;2022-12-07T05:06:49;30.10;;;14.38;;
49828;SDS011;35723;51.194;5.112;2022-12-07T05:09:14;27.17;;;14.02;;
49828;SDS011;35723;51.194;5.112;2022-12-07T05:11:40;28.92;;;14.40;;
49828;SDS011;35723;51.194;5.112;2022-12-07T05:14:19;28.83;;;14.82;;
49828;SDS011;35723;51.194;5.112;2022-12-07T05:16:46;26.70;;;14.35;;
49828;SDS011;35723;51.194;5.112;2022-12-07T05:19:13;27.08;;;14.20;;
49828;SDS011;35723;51.194;5.112;2022-12-07T05:21:39;25.80;;;13.30;;
49828;SDS011;35723;51.194;5.112;2022-12-07T05:24:05;29.63;;;15.30;;
49828;SDS011;35723;51.194;5.112;2022-12-07T05:26:32;29.60;;;15.77;;
49828;SDS011;35723;51.194;5.112;2022-12-07T05:35:10;28.10;;;14.35;;
49828;SDS011;35723;51.194;5.112;2022-12-07T05:42:57;30.35;;;15.13;;
49828;SDS011;35723;51.194;5.112;2022-12-07T06:28:39;27.55;;;14.07;;
49828;SDS011;35723;51.194;5.112;2022-12-07T10:04:30;31.23;;;14.55;;
49828;SDS011;35723;51.194;5.112;2022-12-07T10:06:56;27.38;;;14.02;;
49828;SDS011;35723;51.194;5.112;2022-12-07T10:09:21;26.67;;;13.43;;
49828;SDS011;35723;51.194;5.112;2022-12-07T10:12:00;26.83;;;12.80;;
49828;SDS011;35723;51.194;5.112;2022-12-07T10:14:36;23.20;;;11.82;;
49828;SDS011;35723;51.194;5.112;2022-12-07T10:17:50;28.00;;;12.55;;
49828;SDS011;35723;51.194;5.112;2022-12-07T10:20:20;26.35;;;12.07;;
49828;SDS011;35723;51.194;5.112;2022-12-07T10:25:21;26.63;;;11.48;;
49828;SDS011;35723;51.194;5.112;2022-12-07T10:30:51;24.67;;;11.18;;
49828;SDS011;35723;51.194;5.112;2022-12-07T10:33:34;24.33;;;10.40;;
49828;SDS011;35723;51.194;5.112;2022-12-07T10:36:23;23.98;;;8.98;;
49828;SDS011;35723;51.194;5.112;2022-12-07T10:38:48;20.05;;;8.68;;
49828;SDS011;35723;51.194;5.112;2022-12-07T10:41:17;20.73;;;8.48;;
49828;SDS011;35723;51.194;5.112;2022-12-07T10:43:51;23.55;;;8.35;;
49828;SDS011;35723;51.194;5.112;2022-12-07T10:46:23;21.55;;;8.40;;
49828;SDS011;35723;51.194;5.112;2022-12-07T11:01:42;24.25;;;8.75;;
49828;SDS011;35723;51.194;5.112;2022-12-07T11:13:48;23.55;;;7.60;;
49828;SDS011;35723;51.194;5.112;2022-12-07T11:21:48;21.15;;;7.05;;
49828;SDS011;35723;51.194;5.112;2022-12-07T11:24:35;18.27;;;6.45;;
49828;SDS011;35723;51.194;5.112;2022-12-07T11:27:17;18.60;;;6.20;;
49828;SDS011;35723;51.194;5.112;2022-12-07T11:30:22;18.48;;;6.18;;
49828;SDS011;35723;51.194;5.112;2022-12-07T11:38:01;19.92;;;6.53;;
49828;SDS011;35723;51.194;5.112;2022-12-07T11:40:40;24.35;;;6.65;;
49828;SDS011;35723;51.194;5.112;2022-12-07T11:43:26;15.82;;;6.05;;
49828;SDS011;35723;51.194;5.112;2022-12-07T11:46:09;18.92;;;6.10;;
49828;SDS011;35723;51.194;5.112;2022-12-07T11:48:43;18.45;;;6.32;;
49828;SDS011;35723;51.194;5.112;2022-12-07T11:51:34;19.55;;;6.20;;
49828;SDS011;35723;51.194;5.112;2022-12-07T11:54:03;16.95;;;6.15;;
49828;SDS011;35723;51.194;5.112;2022-12-07T11:56:42;21.65;;;7.03;;
49828;SDS011;35723;51.194;5.112;2022-12-07T11:59:16;19.70;;;6.43;;
49828;SDS011;35723;51.194;5.112;2022-12-07T12:01:53;22.75;;;6.80;;
49828;SDS011;35723;51.194;5.112;2022-12-07T12:04:46;21.25;;;7.10;;
49828;SDS011;35723;51.194;5.112;2022-12-07T12:07:10;23.80;;;7.32;;
49828;SDS011;35723;51.194;5.112;2022-12-07T12:10:05;21.92;;;6.78;;
49828;SDS011;35723;51.194;5.112;2022-12-07T12:20:49;22.77;;;7.50;;
49828;SDS011;35723;51.194;5.112;2022-12-07T12:26:48;25.70;;;7.68;;
49828;SDS011;35723;51.194;5.112;2022-12-07T12:29:21;22.80;;;8.02;;
49828;SDS011;35723;51.194;5.112;2022-12-07T12:32:05;29.02;;;9.02;;
49828;SDS011;35723;51.194;5.112;2022-12-07T12:34:40;42.35;;;9.55;;
49828;SDS011;35723;51.194;5.112;2022-12-07T12:42:51;19.58;;;7.63;;
49828;SDS011;35723;51.194;5.112;2022-12-07T12:45:24;21.33;;;7.82;;
49828;SDS011;35723;51.194;5.112;2022-12-07T12:47:56;22.30;;;7.30;;
49828;SDS011;35723;51.194;5.112;2022-12-07T13:00:44;23.25;;;8.45;;
49828;SDS011;35723;51.194;5.112;2022-12-07T13:03:30;18.63;;;7.28;;
49828;SDS011;35723;51.194;5.112;2022-12-07T13:08:44;20.85;;;7.00;;
49828;SDS011;35723;51.194;5.112;2022-12-07T13:11:25;16.70;;;7.43;;
49828;SDS011;35723;51.194;5.112;2022-12-07T13:16:59;21.03;;;8.10;;
49828;SDS011;35723;51.194;5.112;2022-12-07T13:22:51;21.80;;;7.55;;
49828;SDS011;35723;51.194;5.112;2022-12-07T13:26:04;20.80;;;8.30;;
49828;SDS011;35723;51.194;5.112;2022-12-07T13:28:10;24.55;;;8.82;;
49828;SDS011;35723;51.194;5.112;2022-12-07T13:30:50;22.33;;;8.20;;
49828;SDS011;35723;51.194;5.112;2022-12-07T13:33:34;21.05;;;8.60;;
49828;SDS011;35723;51.194;5.112;2022-12-07T13:36:00;20.73;;;8.30;;
49828;SDS011;35723;51.194;5.112;2022-12-07T13:41:03;21.00;;;8.15;;
49828;SDS011;35723;51.194;5.112;2022-12-07T13:49:30;18.58;;;7.15;;
49828;SDS011;35723;51.194;5.112;2022-12-07T13:52:12;21.88;;;7.60;;
49828;SDS011;35723;51.194;5.112;2022-12-07T13:54:47;18.80;;;7.43;;
49828;SDS011;35723;51.194;5.112;2022-12-07T13:57:14;20.65;;;6.88;;
49828;SDS011;35723;51.194;5.112;2022-12-07T13:59:43;17.80;;;6.82;;
49828;SDS011;35723;51.194;5.112;2022-12-07T14:02:28;17.67;;;5.93;;
49828;SDS011;35723;51.194;5.112;2022-12-07T14:05:15;17.08;;;6.05;;
49828;SDS011;35723;51.194;5.112;2022-12-07T14:08:21;20.23;;;6.50;;
49828;SDS011;35723;51.194;5.112;2022-12-07T14:10:41;19.15;;;6.18;;
49828;SDS011;35723;51.194;5.112;2022-12-07T14:13:35;16.88;;;6.25;;
49828;SDS011;35723;51.194;5.112;2022-12-07T14:18:49;14.23;;;5.80;;
49828;SDS011;35723;51.194;5.112;2022-12-07T14:21:16;17.02;;;5.45;;
49828;SDS011;35723;51.194;5.112;2022-12-07T14:23:44;18.75;;;6.00;;
49828;SDS011;35723;51.194;5.112;2022-12-07T14:26:14;16.30;;;5.40;;
49828;SDS011;35723;51.194;5.112;2022-12-07T14:28:46;14.68;;;5.75;;
49828;SDS011;35723;51.194;5.112;2022-12-07T14:31:16;19.25;;;5.78;;
49828;SDS011;35723;51.194;5.112;2022-12-07T14:33:45;19.10;;;5.90;;
49828;SDS011;35723;51.194;5.112;2022-12-07T14:36:13;20.02;;;6.05;;
49828;SDS011;35723;51.194;5.112;2022-12-07T14:38:40;18.00;;;6.00;;
49828;SDS011;35723;51.194;5.112;2022-12-07T14:41:06;18.77;;;6.97;;
49828;SDS011;35723;51.194;5.112;2022-12-07T14:43:58;22.45;;;8.23;;
49828;SDS011;35723;51.194;5.112;2022-12-07T14:46:24;19.35;;;7.90;;
49828;SDS011;35723;51.194;5.112;2022-12-07T14:48:49;20.13;;;8.88;;
49828;SDS011;35723;51.194;5.112;2022-12-07T14:51:15;23.02;;;9.27;;
49828;SDS011;35723;51.194;5.112;2022-12-07T14:53:42;23.25;;;9.20;;
49828;SDS011;35723;51.194;5.112;2022-12-07T14:56:13;23.58;;;9.20;;
49828;SDS011;35723;51.194;5.112;2022-12-07T14:58:38;21.42;;;9.77;;
49828;SDS011;35723;51.194;5.112;2022-12-07T15:01:05;24.00;;;9.77;;
49828;SDS011;35723;51.194;5.112;2022-12-07T15:03:31;22.08;;;9.90;;
49828;SDS011;35723;51.194;5.112;2022-12-07T15:05:57;22.55;;;9.80;;
49828;SDS011;35723;51.194;5.112;2022-12-07T15:08:22;21.83;;;8.88;;
49828;SDS011;35723;51.194;5.112;2022-12-07T15:10:48;24.27;;;9.68;;
49828;SDS011;35723;51.194;5.112;2022-12-07T15:13:14;24.63;;;9.20;;
49828;SDS011;35723;51.194;5.112;2022-12-07T15:15:58;23.50;;;9.25;;
49828;SDS011;35723;51.194;5.112;2022-12-07T15:18:25;21.90;;;9.60;;
49828;SDS011;35723;51.194;5.112;2022-12-07T15:20:50;27.88;;;10.23;;
49828;SDS011;35723;51.194;5.112;2022-12-07T15:23:16;23.05;;;10.15;;
49828;SDS011;35723;51.194;5.112;2022-12-07T15:25:43;23.15;;;10.27;;
49828;SDS011;35723;51.194;5.112;2022-12-07T15:28:10;21.23;;;10.00;;
49828;SDS011;35723;51.194;5.112;2022-12-07T15:30:37;21.95;;;9.60;;
49828;SDS011;35723;51.194;5.112;2022-12-07T15:33:03;21.00;;;9.68;;
49828;SDS011;35723;51.194;5.112;2022-12-07T15:35:29;21.83;;;9.15;;
49828;SDS011;35723;51.194;5.112;2022-12-07T15:37:54;22.52;;;9.40;;
49828;SDS011;35723;51.194;5.112;2022-12-07T15:40:20;21.27;;;8.95;;
49828;SDS011;35723;51.194;5.112;2022-12-07T15:42:46;21.65;;;9.50;;
49828;SDS011;35723;51.194;5.112;2022-12-07T15:45:11;19.33;;;8.60;;
49828;SDS011;35723;51.194;5.112;2022-12-07T15:47:39;25.30;;;9.57;;
49828;SDS011;35723;51.194;5.112;2022-12-07T15:50:07;21.73;;;9.25;;
49828;SDS011;35723;51.194;5.112;2022-12-07T15:52:34;19.23;;;8.77;;
49828;SDS011;35723;51.194;5.112;2022-12-07T15:55:00;20.35;;;8.75;;
49828;SDS011;35723;51.194;5.112;2022-12-07T15:57:28;20.00;;;8.43;;
49828;SDS011;35723;51.194;5.112;2022-12-07T15:59:54;20.88;;;8.90;;
49828;SDS011;35723;51.194;5.112;2022-12-07T16:02:20;24.25;;;9.57;;
49828;SDS011;35723;51.194;5.112;2022-12-07T16:04:47;21.42;;;9.52;;
49828;SDS011;35723;51.194;5.112;2022-12-07T16:07:13;22.27;;;8.82;;
49828;SDS011;35723;51.194;5.112;2022-12-07T16:09:40;19.88;;;9.55;;
49828;SDS011;35723;51.194;5.112;2022-12-07T16:12:07;23.13;;;9.25;;
49828;SDS011;35723;51.194;5.112;2022-12-07T16:14:33;21.45;;;9.55;;
49828;SDS011;35723;51.194;5.112;2022-12-07T16:16:59;24.13;;;9.73;;
49828;SDS011;35723;51.194;5.112;2022-12-07T16:19:24;21.48;;;9.70;;
49828;SDS011;35723;51.194;5.112;2022-12-07T16:21:50;25.60;;;10.60;;
49828;SDS011;35723;51.194;5.112;2022-12-07T16:24:16;22.23;;;10.57;;
49828;SDS011;35723;51.194;5.112;2022-12-07T16:26:42;21.08;;;10.05;;
49828;SDS011;35723;51.194;5.112;2022-12-07T16:29:10;20.42;;;9.90;;
49828;SDS011;35723;51.194;5.112;2022-12-07T16:31:37;21.58;;;10.40;;
49828;SDS011;35723;51.194;5.112;2022-12-07T16:34:03;25.50;;;10.90;;
49828;SDS011;35723;51.194;5.112;2022-12-07T16:36:28;21.92;;;9.80;;
49828;SDS011;35723;51.194;5.112;2022-12-07T16:38:54;22.30;;;9.32;;
49828;SDS011;35723;51.194;5.112;2022-12-07T16:41:20;23.13;;;10.05;;
49828;SDS011;35723;51.194;5.112;2022-12-07T16:43:45;23.50;;;11.48;;
49828;SDS011;35723;51.194;5.112;2022-12-07T16:46:11;25.25;;;10.77;;
49828;SDS011;35723;51.194;5.112;2022-12-07T16:48:38;23.55;;;10.55;;
49828;SDS011;35723;51.194;5.112;2022-12-07T16:51:05;21.75;;;11.02;;
49828;SDS011;35723;51.194;5.112;2022-12-07T16:53:33;20.88;;;9.85;;
49828;SDS011;35723;51.194;5.112;2022-12-07T16:55:59;20.92;;;9.60;;
49828;SDS011;35723;51.194;5.112;2022-12-07T16:58:25;22.85;;;10.13;;
49828;SDS011;35723;51.194;5.112;2022-12-07T17:00:50;21.55;;;9.35;;
49828;SDS011;35723;51.194;5.112;2022-12-07T17:03:16;21.35;;;8.93;;
49828;SDS011;35723;51.194;5.112;2022-12-07T17:05:42;19.80;;;9.00;;
49828;SDS011;35723;51.194;5.112;2022-12-07T17:08:09;19.70;;;8.68;;
49828;SDS011;35723;51.194;5.112;2022-12-07T17:10:37;16.73;;;8.20;;
49828;SDS011;35723;51.194;5.112;2022-12-07T17:13:04;23.50;;;8.95;;
49828;SDS011;35723;51.194;5.112;2022-12-07T17:15:57;19.33;;;8.48;;
49828;SDS011;35723;51.194;5.112;2022-12-07T17:18:29;18.10;;;8.10;;
49828;SDS011;35723;51.194;5.112;2022-12-07T17:20:56;19.90;;;8.40;;
49828;SDS011;35723;51.194;5.112;2022-12-07T17:23:30;18.70;;;8.75;;
49828;SDS011;35723;51.194;5.112;2022-12-07T17:26:03;18.75;;;8.20;;
49828;SDS011;35723;51.194;5.112;2022-12-07T17:28:36;21.50;;;8.75;;
49828;SDS011;35723;51.194;5.112;2022-12-07T17:31:04;22.70;;;8.52;;
49828;SDS011;35723;51.194;5.112;2022-12-07T17:33:31;21.80;;;9.38;;
49828;SDS011;35723;51.194;5.112;2022-12-07T17:35:58;20.63;;;8.90;;
49828;SDS011;35723;51.194;5.112;2022-12-07T17:38:24;23.73;;;9.52;;
49828;SDS011;35723;51.194;5.112;2022-12-07T17:40:50;20.45;;;8.73;;
49828;SDS011;35723;51.194;5.112;2022-12-07T17:43:16;21.52;;;8.93;;
49828;SDS011;35723;51.194;5.112;2022-12-07T17:45:41;20.25;;;9.13;;
49828;SDS011;35723;51.194;5.112;2022-12-07T17:48:07;23.08;;;9.07;;
49828;SDS011;35723;51.194;5.112;2022-12-07T17:50:32;23.02;;;9.13;;
49828;SDS011;35723;51.194;5.112;2022-12-07T17:56:43;23.58;;;9.23;;
49828;SDS011;35723;51.194;5.112;2022-12-07T17:59:09;20.85;;;9.20;;
49828;SDS011;35723;51.194;5.112;2022-12-07T18:01:35;20.70;;;9.07;;
49828;SDS011;35723;51.194;5.112;2022-12-07T18:04:01;19.20;;;9.15;;
49828;SDS011;35723;51.194;5.112;2022-12-07T18:06:27;19.70;;;8.93;;
49828;SDS011;35723;51.194;5.112;2022-12-07T18:08:53;21.45;;;8.55;;
49828;SDS011;35723;51.194;5.112;2022-12-07T18:11:19;24.75;;;8.65;;
49828;SDS011;35723;51.194;5.112;2022-12-07T18:13:45;21.85;;;8.88;;
49828;SDS011;35723;51.194;5.112;2022-12-07T18:16:12;20.42;;;8.80;;
49828;SDS011;35723;51.194;5.112;2022-12-07T18:18:41;23.00;;;8.35;;
49828;SDS011;35723;51.194;5.112;2022-12-07T18:21:09;19.50;;;8.23;;
49828;SDS011;35723;51.194;5.112;2022-12-07T18:23:41;20.48;;;8.65;;
49828;SDS011;35723;51.194;5.112;2022-12-07T18:26:11;22.52;;;8.82;;
49828;SDS011;35723;51.194;5.112;2022-12-07T18:28:40;23.05;;;9.07;;
49828;SDS011;35723;51.194;5.112;2022-12-07T18:31:07;20.35;;;8.82;;
49828;SDS011;35723;51.194;5.112;2022-12-07T18:33:33;21.83;;;9.05;;
49828;SDS011;35723;51.194;5.112;2022-12-07T18:35:59;22.20;;;9.85;;
49828;SDS011;35723;51.194;5.112;2022-12-07T18:38:26;25.98;;;11.10;;
49828;SDS011;35723;51.194;5.112;2022-12-07T18:40:52;23.08;;;10.00;;
49828;SDS011;35723;51.194;5.112;2022-12-07T18:43:18;24.10;;;10.52;;
49828;SDS011;35723;51.194;5.112;2022-12-07T18:45:44;22.38;;;10.30;;
49828;SDS011;35723;51.194;5.112;2022-12-07T18:48:13;23.45;;;10.68;;
49828;SDS011;35723;51.194;5.112;2022-12-07T18:50:41;26.50;;;11.20;;
49828;SDS011;35723;51.194;5.112;2022-12-07T18:53:07;26.77;;;10.43;;
49828;SDS011;35723;51.194;5.112;2022-12-07T18:55:34;23.95;;;10.18;;
49828;SDS011;35723;51.194;5.112;2022-12-07T18:58:00;22.77;;;10.52;;
49828;SDS011;35723;51.194;5.112;2022-12-07T19:00:26;26.73;;;10.82;;
49828;SDS011;35723;51.194;5.112;2022-12-07T19:02:54;27.40;;;11.27;;
49828;SDS011;35723;51.194;5.112;2022-12-07T19:05:20;22.85;;;10.75;;
49828;SDS011;35723;51.194;5.112;2022-12-07T19:07:47;22.80;;;10.18;;
49828;SDS011;35723;51.194;5.112;2022-12-07T19:10:14;25.17;;;11.27;;
49828;SDS011;35723;51.194;5.112;2022-12-07T19:12:40;24.55;;;10.98;;
49828;SDS011;35723;51.194;5.112;2022-12-07T19:15:06;24.88;;;10.57;;
49828;SDS011;35723;51.194;5.112;2022-12-07T19:17:33;22.00;;;10.57;;
49828;SDS011;35723;51.194;5.112;2022-12-07T19:20:00;24.33;;;9.85;;
49828;SDS011;35723;51.194;5.112;2022-12-07T19:22:26;24.50;;;9.93;;
49828;SDS011;35723;51.194;5.112;2022-12-07T19:24:52;25.27;;;10.38;;
49828;SDS011;35723;51.194;5.112;2022-12-07T19:27:18;23.30;;;8.70;;
49828;SDS011;35723;51.194;5.112;2022-12-07T19:29:45;20.38;;;8.50;;
49828;SDS011;35723;51.194;5.112;2022-12-07T19:32:11;19.55;;;7.82;;
49828;SDS011;35723;51.194;5.112;2022-12-07T19:34:37;20.50;;;8.00;;
49828;SDS011;35723;51.194;5.112;2022-12-07T19:37:05;15.98;;;6.63;;
49828;SDS011;35723;51.194;5.112;2022-12-07T19:39:32;22.00;;;7.85;;
49828;SDS011;35723;51.194;5.112;2022-12-07T19:41:58;20.05;;;7.97;;
49828;SDS011;35723;51.194;5.112;2022-12-07T19:44:25;18.73;;;7.47;;
49828;SDS011;35723;51.194;5.112;2022-12-07T19:46:52;18.65;;;7.80;;
49828;SDS011;35723;51.194;5.112;2022-12-07T19:49:20;20.98;;;8.25;;
49828;SDS011;35723;51.194;5.112;2022-12-07T19:51:47;21.58;;;8.45;;
49828;SDS011;35723;51.194;5.112;2022-12-07T19:54:16;20.63;;;8.40;;
49828;SDS011;35723;51.194;5.112;2022-12-07T19:56:43;19.60;;;8.50;;
49828;SDS011;35723;51.194;5.112;2022-12-07T19:59:10;28.15;;;10.35;;
49828;SDS011;35723;51.194;5.112;2022-12-07T20:01:37;22.90;;;9.90;;
49828;SDS011;35723;51.194;5.112;2022-12-07T20:04:05;23.02;;;10.40;;
49828;SDS011;35723;51.194;5.112;2022-12-07T20:06:32;23.67;;;10.65;;
49828;SDS011;35723;51.194;5.112;2022-12-07T20:08:57;24.02;;;10.75;;
49828;SDS011;35723;51.194;5.112;2022-12-07T20:11:23;24.58;;;11.48;;
49828;SDS011;35723;51.194;5.112;2022-12-07T20:27:52;24.48;;;10.45;;
49828;SDS011;35723;51.194;5.112;2022-12-07T20:30:18;23.45;;;10.55;;
49828;SDS011;35723;51.194;5.112;2022-12-07T20:32:43;21.88;;;10.20;;
49828;SDS011;35723;51.194;5.112;2022-12-07T20:35:09;20.42;;;9.95;;
49828;SDS011;35723;51.194;5.112;2022-12-07T20:37:35;23.90;;;10.38;;
49828;SDS011;35723;51.194;5.112;2022-12-07T20:40:00;25.35;;;10.60;;
49828;SDS011;35723;51.194;5.112;2022-12-07T20:42:26;25.90;;;11.98;;
49828;SDS011;35723;51.194;5.112;2022-12-07T20:45:10;22.77;;;10.77;;
49828;SDS011;35723;51.194;5.112;2022-12-07T20:47:36;27.63;;;11.48;;
49828;SDS011;35723;51.194;5.112;2022-12-07T20:50:02;22.83;;;10.48;;
49828;SDS011;35723;51.194;5.112;2022-12-07T20:52:29;27.52;;;10.73;;
49828;SDS011;35723;51.194;5.112;2022-12-07T20:54:55;22.23;;;10.52;;
49828;SDS011;35723;51.194;5.112;2022-12-07T20:57:20;22.98;;;10.63;;
49828;SDS011;35723;51.194;5.112;2022-12-07T20:59:46;23.95;;;9.93;;
49828;SDS011;35723;51.194;5.112;2022-12-07T21:02:12;22.17;;;10.27;;
49828;SDS011;35723;51.194;5.112;2022-12-07T21:04:38;23.52;;;10.88;;
49828;SDS011;35723;51.194;5.112;2022-12-07T21:07:04;28.92;;;11.35;;
49828;SDS011;35723;51.194;5.112;2022-12-07T21:09:30;25.85;;;12.68;;
49828;SDS011;35723;51.194;5.112;2022-12-07T21:11:55;26.33;;;12.65;;
49828;SDS011;35723;51.194;5.112;2022-12-07T21:14:21;24.67;;;11.70;;
49828;SDS011;35723;51.194;5.112;2022-12-07T21:16:47;23.73;;;11.90;;
49828;SDS011;35723;51.194;5.112;2022-12-07T21:19:13;23.15;;;12.13;;
49828;SDS011;35723;51.194;5.112;2022-12-07T21:21:39;25.85;;;11.55;;